sensor_id;sensor_type;location;lat;lon;timestamp;temperature;humidity
70947;DHT22;58605;48.700;8.760;2023-11-21T00:02:14;9.00;91.10
70947;DHT22;58605;48.700;8.760;2023-11-21T00:04:42;9.10;90.80
70947;DHT22;58605;48.700;8.760;2023-11-21T00:07:08;9.20;90.80
70947;DHT22;58605;48.700;8.760;2023-11-21T00:09:35;9.40;90.20
70947;DHT22;58605;48.700;8.760;2023-11-21T00:12:08;9.50;90.10
70947;DHT22;58605;48.700;8.760;2023-11-21T00:14:39;9.70;89.20
70947;DHT22;58605;48.700;8.760;2023-11-21T00:17:06;9.70;89.30
70947;DHT22;58605;48.700;8.760;2023-11-21T00:19:32;9.60;89.30
70947;DHT22;58605;48.700;8.760;2023-11-21T00:22:02;9.50;89.90
70947;DHT22;58605;48.700;8.760;2023-11-21T00:24:28;9.40;90.10
70947;DHT22;58605;48.700;8.760;2023-11-21T00:26:55;9.40;90.30
70947;DHT22;58605;48.700;8.760;2023-11-21T00:29:21;9.30;90.40
70947;DHT22;58605;48.700;8.760;2023-11-21T00:31:48;9.20;90.90
70947;DHT22;58605;48.700;8.760;2023-11-21T00:34:14;9.30;91.00
70947;DHT22;58605;48.700;8.760;2023-11-21T00:36:40;9.10;91.30
70947;DHT22;58605;48.700;8.760;2023-11-21T00:39:14;9.20;90.90
70947;DHT22;58605;48.700;8.760;2023-11-21T00:41:40;9.20;90.20
70947;DHT22;58605;48.700;8.760;2023-11-21T00:44:07;9.10;90.30
70947;DHT22;58605;48.700;8.760;2023-11-21T00:46:34;9.00;90.40
70947;DHT22;58605;48.700;8.760;2023-11-21T00:49:00;9.00;90.60
70947;DHT22;58605;48.700;8.760;2023-11-21T00:51:26;9.00;90.70
70947;DHT22;58605;48.700;8.760;2023-11-21T00:53:53;9.20;90.50
70947;DHT22;58605;48.700;8.760;2023-11-21T00:56:21;9.00;90.70
70947;DHT22;58605;48.700;8.760;2023-11-21T00:58:47;8.80;91.60
70947;DHT22;58605;48.700;8.760;2023-11-21T01:01:16;8.70;92.00
70947;DHT22;58605;48.700;8.760;2023-11-21T01:03:42;8.60;92.50
70947;DHT22;58605;48.700;8.760;2023-11-21T01:06:09;8.60;92.80
70947;DHT22;58605;48.700;8.760;2023-11-21T01:08:35;8.60;92.90
70947;DHT22;58605;48.700;8.760;2023-11-21T01:11:02;8.50;92.90
70947;DHT22;58605;48.700;8.760;2023-11-21T01:13:29;8.50;93.00
70947;DHT22;58605;48.700;8.760;2023-11-21T01:15:56;8.50;93.40
70947;DHT22;58605;48.700;8.760;2023-11-21T01:18:22;8.50;93.20
70947;DHT22;58605;48.700;8.760;2023-11-21T01:20:51;8.50;93.20
70947;DHT22;58605;48.700;8.760;2023-11-21T01:23:19;8.40;93.20
70947;DHT22;58605;48.700;8.760;2023-11-21T01:25:45;8.40;93.30
70947;DHT22;58605;48.700;8.760;2023-11-21T01:28:12;8.50;93.40
70947;DHT22;58605;48.700;8.760;2023-11-21T01:30:39;8.50;93.30
70947;DHT22;58605;48.700;8.760;2023-11-21T01:33:06;8.70;93.20
70947;DHT22;58605;48.700;8.760;2023-11-21T01:35:32;8.80;93.10
70947;DHT22;58605;48.700;8.760;2023-11-21T01:38:00;8.80;92.80
70947;DHT22;58605;48.700;8.760;2023-11-21T01:40:26;8.70;92.80
70947;DHT22;58605;48.700;8.760;2023-11-21T01:42:53;8.70;92.90
70947;DHT22;58605;48.700;8.760;2023-11-21T01:45:19;8.60;92.90
70947;DHT22;58605;48.700;8.760;2023-11-21T01:47:47;8.60;93.30
70947;DHT22;58605;48.700;8.760;2023-11-21T01:50:16;8.70;92.80
70947;DHT22;58605;48.700;8.760;2023-11-21T01:52:45;9.00;91.70
70947;DHT22;58605;48.700;8.760;2023-11-21T01:55:15;9.00;91.30
70947;DHT22;58605;48.700;8.760;2023-11-21T01:57:44;8.70;92.40
70947;DHT22;58605;48.700;8.760;2023-11-21T02:03:33;8.60;93.10
70947;DHT22;58605;48.700;8.760;2023-11-21T02:05:59;8.70;92.90
70947;DHT22;58605;48.700;8.760;2023-11-21T02:08:26;8.90;92.60
70947;DHT22;58605;48.700;8.760;2023-11-21T02:10:52;9.10;91.90
70947;DHT22;58605;48.700;8.760;2023-11-21T02:13:18;9.30;91.40
70947;DHT22;58605;48.700;8.760;2023-11-21T02:15:45;9.30;91.30
70947;DHT22;58605;48.700;8.760;2023-11-21T02:18:11;9.10;91.60
70947;DHT22;58605;48.700;8.760;2023-11-21T02:20:39;9.30;91.40
70947;DHT22;58605;48.700;8.760;2023-11-21T02:23:09;9.30;91.40
70947;DHT22;58605;48.700;8.760;2023-11-21T02:25:35;9.10;91.60
70947;DHT22;58605;48.700;8.760;2023-11-21T02:28:03;9.10;91.80
70947;DHT22;58605;48.700;8.760;2023-11-21T02:30:30;9.10;91.90
70947;DHT22;58605;48.700;8.760;2023-11-21T02:32:59;9.10;91.70
70947;DHT22;58605;48.700;8.760;2023-11-21T02:35:26;9.10;91.70
70947;DHT22;58605;48.700;8.760;2023-11-21T02:37:53;8.80;92.20
70947;DHT22;58605;48.700;8.760;2023-11-21T02:40:20;8.80;92.50
70947;DHT22;58605;48.700;8.760;2023-11-21T02:42:47;8.70;92.40
70947;DHT22;58605;48.700;8.760;2023-11-21T02:45:13;8.70;92.60
70947;DHT22;58605;48.700;8.760;2023-11-21T02:47:42;8.70;92.80
70947;DHT22;58605;48.700;8.760;2023-11-21T02:50:09;8.60;92.70
70947;DHT22;58605;48.700;8.760;2023-11-21T02:52:35;8.60;92.90
70947;DHT22;58605;48.700;8.760;2023-11-21T02:55:02;8.60;92.90
70947;DHT22;58605;48.700;8.760;2023-11-21T02:57:30;8.50;93.00
70947;DHT22;58605;48.700;8.760;2023-11-21T02:59:56;8.40;93.20
70947;DHT22;58605;48.700;8.760;2023-11-21T03:02:30;8.40;93.20
70947;DHT22;58605;48.700;8.760;2023-11-21T03:04:56;8.40;93.40
70947;DHT22;58605;48.700;8.760;2023-11-21T03:07:22;8.40;93.30
70947;DHT22;58605;48.700;8.760;2023-11-21T03:09:54;8.40;93.40
70947;DHT22;58605;48.700;8.760;2023-11-21T03:12:20;8.40;93.40
70947;DHT22;58605;48.700;8.760;2023-11-21T03:14:48;8.40;93.40
70947;DHT22;58605;48.700;8.760;2023-11-21T03:17:14;8.40;93.40
70947;DHT22;58605;48.700;8.760;2023-11-21T03:19:41;8.40;93.40
70947;DHT22;58605;48.700;8.760;2023-11-21T03:22:07;8.30;93.50
70947;DHT22;58605;48.700;8.760;2023-11-21T03:24:34;8.40;93.50
70947;DHT22;58605;48.700;8.760;2023-11-21T03:27:00;8.40;93.50
70947;DHT22;58605;48.700;8.760;2023-11-21T03:29:26;8.40;93.50
70947;DHT22;58605;48.700;8.760;2023-11-21T03:31:53;8.40;93.40
70947;DHT22;58605;48.700;8.760;2023-11-21T03:34:24;8.50;93.40
70947;DHT22;58605;48.700;8.760;2023-11-21T03:36:51;8.50;93.20
70947;DHT22;58605;48.700;8.760;2023-11-21T03:39:19;8.50;93.10
70947;DHT22;58605;48.700;8.760;2023-11-21T03:41:45;8.60;93.20
70947;DHT22;58605;48.700;8.760;2023-11-21T03:44:11;8.60;93.00
70947;DHT22;58605;48.700;8.760;2023-11-21T03:46:37;9.00;92.10
70947;DHT22;58605;48.700;8.760;2023-11-21T03:49:05;9.20;91.30
70947;DHT22;58605;48.700;8.760;2023-11-21T03:51:31;9.30;91.00
70947;DHT22;58605;48.700;8.760;2023-11-21T03:53:57;9.20;90.80
70947;DHT22;58605;48.700;8.760;2023-11-21T03:56:23;9.30;90.80
70947;DHT22;58605;48.700;8.760;2023-11-21T03:58:49;9.10;91.10
70947;DHT22;58605;48.700;8.760;2023-11-21T04:01:20;9.00;91.50
70947;DHT22;58605;48.700;8.760;2023-11-21T04:03:47;9.20;91.20
70947;DHT22;58605;48.700;8.760;2023-11-21T04:06:15;9.20;91.20
70947;DHT22;58605;48.700;8.760;2023-11-21T04:08:41;9.40;90.60
70947;DHT22;58605;48.700;8.760;2023-11-21T04:11:07;9.50;90.60
70947;DHT22;58605;48.700;8.760;2023-11-21T04:13:33;9.50;90.30
70947;DHT22;58605;48.700;8.760;2023-11-21T04:15:59;9.20;91.10
70947;DHT22;58605;48.700;8.760;2023-11-21T04:18:25;9.20;91.20
70947;DHT22;58605;48.700;8.760;2023-11-21T04:20:51;9.50;90.70
70947;DHT22;58605;48.700;8.760;2023-11-21T04:23:19;9.60;90.30
70947;DHT22;58605;48.700;8.760;2023-11-21T04:25:45;9.50;90.30
70947;DHT22;58605;48.700;8.760;2023-11-21T04:28:11;9.60;90.40
70947;DHT22;58605;48.700;8.760;2023-11-21T04:30:37;9.50;90.50
70947;DHT22;58605;48.700;8.760;2023-11-21T04:33:05;9.40;90.80
70947;DHT22;58605;48.700;8.760;2023-11-21T04:35:31;9.60;90.50
70947;DHT22;58605;48.700;8.760;2023-11-21T04:37:57;9.60;90.60
70947;DHT22;58605;48.700;8.760;2023-11-21T04:40:25;9.90;89.60
70947;DHT22;58605;48.700;8.760;2023-11-21T04:42:52;9.80;89.50
70947;DHT22;58605;48.700;8.760;2023-11-21T04:45:18;9.80;89.40
70947;DHT22;58605;48.700;8.760;2023-11-21T04:47:45;9.80;89.20
70947;DHT22;58605;48.700;8.760;2023-11-21T04:50:11;9.70;89.10
70947;DHT22;58605;48.700;8.760;2023-11-21T04:52:37;9.40;90.10
70947;DHT22;58605;48.700;8.760;2023-11-21T04:55:03;9.50;90.20
70947;DHT22;58605;48.700;8.760;2023-11-21T04:57:31;9.50;90.20
70947;DHT22;58605;48.700;8.760;2023-11-21T04:59:57;9.50;90.10
70947;DHT22;58605;48.700;8.760;2023-11-21T05:02:23;9.50;90.10
70947;DHT22;58605;48.700;8.760;2023-11-21T05:04:49;9.60;90.00
70947;DHT22;58605;48.700;8.760;2023-11-21T05:07:15;9.70;89.30
70947;DHT22;58605;48.700;8.760;2023-11-21T05:09:42;9.50;89.20
70947;DHT22;58605;48.700;8.760;2023-11-21T05:12:10;9.30;90.20
70947;DHT22;58605;48.700;8.760;2023-11-21T05:14:38;9.20;90.60
70947;DHT22;58605;48.700;8.760;2023-11-21T05:17:04;9.10;90.90
70947;DHT22;58605;48.700;8.760;2023-11-21T05:19:30;8.90;91.10
70947;DHT22;58605;48.700;8.760;2023-11-21T05:21:58;8.80;91.70
70947;DHT22;58605;48.700;8.760;2023-11-21T05:24:26;8.80;91.70
70947;DHT22;58605;48.700;8.760;2023-11-21T05:26:52;8.70;91.70
70947;DHT22;58605;48.700;8.760;2023-11-21T05:29:18;8.70;91.80
70947;DHT22;58605;48.700;8.760;2023-11-21T05:31:46;8.70;91.90
70947;DHT22;58605;48.700;8.760;2023-11-21T05:34:12;8.60;91.90
70947;DHT22;58605;48.700;8.760;2023-11-21T05:36:38;8.60;92.00
70947;DHT22;58605;48.700;8.760;2023-11-21T05:39:04;8.60;92.10
70947;DHT22;58605;48.700;8.760;2023-11-21T05:41:30;8.50;92.40
70947;DHT22;58605;48.700;8.760;2023-11-21T05:43:56;8.40;92.50
70947;DHT22;58605;48.700;8.760;2023-11-21T05:46:22;8.40;92.60
70947;DHT22;58605;48.700;8.760;2023-11-21T05:48:50;8.50;92.30
70947;DHT22;58605;48.700;8.760;2023-11-21T05:51:16;8.50;92.00
70947;DHT22;58605;48.700;8.760;2023-11-21T05:53:43;8.50;91.90
70947;DHT22;58605;48.700;8.760;2023-11-21T05:56:09;8.40;91.90
70947;DHT22;58605;48.700;8.760;2023-11-21T05:58:35;8.40;92.20
70947;DHT22;58605;48.700;8.760;2023-11-21T06:01:01;8.40;92.10
70947;DHT22;58605;48.700;8.760;2023-11-21T06:03:28;8.40;92.20
70947;DHT22;58605;48.700;8.760;2023-11-21T06:05:56;8.40;92.20
70947;DHT22;58605;48.700;8.760;2023-11-21T06:08:22;8.40;92.50
70947;DHT22;58605;48.700;8.760;2023-11-21T06:10:48;8.70;92.40
70947;DHT22;58605;48.700;8.760;2023-11-21T06:13:15;8.60;92.10
70947;DHT22;58605;48.700;8.760;2023-11-21T06:15:41;8.60;92.50
70947;DHT22;58605;48.700;8.760;2023-11-21T06:18:07;8.60;92.60
70947;DHT22;58605;48.700;8.760;2023-11-21T06:20:36;8.50;92.70
70947;DHT22;58605;48.700;8.760;2023-11-21T06:23:04;8.40;92.90
70947;DHT22;58605;48.700;8.760;2023-11-21T06:25:31;8.50;93.10
70947;DHT22;58605;48.700;8.760;2023-11-21T06:28:01;8.90;92.40
70947;DHT22;58605;48.700;8.760;2023-11-21T06:30:28;9.20;91.40
70947;DHT22;58605;48.700;8.760;2023-11-21T06:32:54;9.30;91.00
70947;DHT22;58605;48.700;8.760;2023-11-21T06:35:22;9.20;91.20
70947;DHT22;58605;48.700;8.760;2023-11-21T06:37:48;9.10;91.30
70947;DHT22;58605;48.700;8.760;2023-11-21T06:40:15;9.20;91.20
70947;DHT22;58605;48.700;8.760;2023-11-21T06:42:42;9.30;90.80
70947;DHT22;58605;48.700;8.760;2023-11-21T06:45:10;9.30;90.80
70947;DHT22;58605;48.700;8.760;2023-11-21T06:47:36;9.40;90.50
70947;DHT22;58605;48.700;8.760;2023-11-21T06:50:04;9.40;90.40
70947;DHT22;58605;48.700;8.760;2023-11-21T06:52:30;9.30;90.40
70947;DHT22;58605;48.700;8.760;2023-11-21T06:54:56;9.20;90.40
70947;DHT22;58605;48.700;8.760;2023-11-21T06:57:24;9.20;90.50
70947;DHT22;58605;48.700;8.760;2023-11-21T06:59:50;9.10;90.50
70947;DHT22;58605;48.700;8.760;2023-11-21T07:02:16;9.20;90.60
70947;DHT22;58605;48.700;8.760;2023-11-21T07:04:44;9.20;90.50
70947;DHT22;58605;48.700;8.760;2023-11-21T07:07:12;9.30;90.50
70947;DHT22;58605;48.700;8.760;2023-11-21T07:09:46;9.40;90.40
70947;DHT22;58605;48.700;8.760;2023-11-21T07:12:12;9.40;90.20
70947;DHT22;58605;48.700;8.760;2023-11-21T07:14:39;9.40;90.30
70947;DHT22;58605;48.700;8.760;2023-11-21T07:17:09;9.30;90.40
70947;DHT22;58605;48.700;8.760;2023-11-21T07:19:35;9.30;90.50
70947;DHT22;58605;48.700;8.760;2023-11-21T07:22:01;9.20;90.60
70947;DHT22;58605;48.700;8.760;2023-11-21T07:24:27;9.00;91.10
70947;DHT22;58605;48.700;8.760;2023-11-21T07:26:53;9.00;91.30
70947;DHT22;58605;48.700;8.760;2023-11-21T07:29:23;9.00;91.20
70947;DHT22;58605;48.700;8.760;2023-11-21T07:31:53;9.00;91.40
70947;DHT22;58605;48.700;8.760;2023-11-21T07:34:19;8.80;91.80
70947;DHT22;58605;48.700;8.760;2023-11-21T07:36:45;8.70;92.10
70947;DHT22;58605;48.700;8.760;2023-11-21T07:39:12;8.90;92.00
70947;DHT22;58605;48.700;8.760;2023-11-21T07:41:38;9.10;91.40
70947;DHT22;58605;48.700;8.760;2023-11-21T07:44:10;9.00;91.30
70947;DHT22;58605;48.700;8.760;2023-11-21T07:46:36;8.90;91.40
70947;DHT22;58605;48.700;8.760;2023-11-21T07:49:04;8.90;91.60
70947;DHT22;58605;48.700;8.760;2023-11-21T07:51:30;8.80;91.90
70947;DHT22;58605;48.700;8.760;2023-11-21T07:53:56;8.70;92.20
70947;DHT22;58605;48.700;8.760;2023-11-21T07:56:22;8.80;92.40
70947;DHT22;58605;48.700;8.760;2023-11-21T07:58:48;8.70;92.30
70947;DHT22;58605;48.700;8.760;2023-11-21T08:01:15;8.80;92.40
70947;DHT22;58605;48.700;8.760;2023-11-21T08:03:41;8.70;92.40
70947;DHT22;58605;48.700;8.760;2023-11-21T08:06:09;8.70;92.40
70947;DHT22;58605;48.700;8.760;2023-11-21T08:08:35;8.70;92.50
70947;DHT22;58605;48.700;8.760;2023-11-21T08:11:01;8.70;92.60
70947;DHT22;58605;48.700;8.760;2023-11-21T08:13:29;8.80;92.60
70947;DHT22;58605;48.700;8.760;2023-11-21T08:15:58;8.90;92.50
70947;DHT22;58605;48.700;8.760;2023-11-21T08:18:28;8.90;92.50
70947;DHT22;58605;48.700;8.760;2023-11-21T08:20:55;9.00;92.50
70947;DHT22;58605;48.700;8.760;2023-11-21T08:23:23;9.10;92.40
70947;DHT22;58605;48.700;8.760;2023-11-21T08:25:52;9.20;92.20
70947;DHT22;58605;48.700;8.760;2023-11-21T08:28:18;9.10;92.00
70947;DHT22;58605;48.700;8.760;2023-11-21T08:30:45;9.00;92.20
70947;DHT22;58605;48.700;8.760;2023-11-21T08:33:11;8.70;92.50
70947;DHT22;58605;48.700;8.760;2023-11-21T08:35:37;8.60;92.90
70947;DHT22;58605;48.700;8.760;2023-11-21T08:38:04;8.40;93.10
70947;DHT22;58605;48.700;8.760;2023-11-21T08:40:31;8.40;93.30
70947;DHT22;58605;48.700;8.760;2023-11-21T08:42:58;8.40;93.40
70947;DHT22;58605;48.700;8.760;2023-11-21T08:45:26;8.30;93.40
70947;DHT22;58605;48.700;8.760;2023-11-21T08:47:53;8.30;93.50
70947;DHT22;58605;48.700;8.760;2023-11-21T08:50:19;8.30;93.40
70947;DHT22;58605;48.700;8.760;2023-11-21T08:52:46;8.40;93.50
70947;DHT22;58605;48.700;8.760;2023-11-21T08:55:12;8.40;93.40
70947;DHT22;58605;48.700;8.760;2023-11-21T08:57:43;8.40;93.30
70947;DHT22;58605;48.700;8.760;2023-11-21T09:00:10;8.40;93.30
70947;DHT22;58605;48.700;8.760;2023-11-21T09:02:43;8.30;93.40
70947;DHT22;58605;48.700;8.760;2023-11-21T09:05:09;8.30;93.40
70947;DHT22;58605;48.700;8.760;2023-11-21T09:07:36;8.40;93.40
70947;DHT22;58605;48.700;8.760;2023-11-21T09:10:02;8.40;93.30
70947;DHT22;58605;48.700;8.760;2023-11-21T09:12:28;8.40;93.20
70947;DHT22;58605;48.700;8.760;2023-11-21T09:14:56;8.50;93.10
70947;DHT22;58605;48.700;8.760;2023-11-21T09:17:22;8.60;93.00
70947;DHT22;58605;48.700;8.760;2023-11-21T09:19:48;8.60;92.80
70947;DHT22;58605;48.700;8.760;2023-11-21T09:22:17;8.60;92.80
70947;DHT22;58605;48.700;8.760;2023-11-21T09:24:43;8.60;92.70
70947;DHT22;58605;48.700;8.760;2023-11-21T09:27:09;8.70;92.70
70947;DHT22;58605;48.700;8.760;2023-11-21T09:29:35;8.70;92.70
70947;DHT22;58605;48.700;8.760;2023-11-21T09:32:06;8.70;92.50
70947;DHT22;58605;48.700;8.760;2023-11-21T09:34:34;8.70;92.60
70947;DHT22;58605;48.700;8.760;2023-11-21T09:37:04;8.60;92.70
70947;DHT22;58605;48.700;8.760;2023-11-21T09:39:32;8.60;92.80
70947;DHT22;58605;48.700;8.760;2023-11-21T09:42:04;8.60;92.80
70947;DHT22;58605;48.700;8.760;2023-11-21T09:44:43;8.70;92.70
70947;DHT22;58605;48.700;8.760;2023-11-21T09:47:15;8.90;92.50
70947;DHT22;58605;48.700;8.760;2023-11-21T09:49:43;9.00;92.20
70947;DHT22;58605;48.700;8.760;2023-11-21T09:52:18;9.30;92.20
70947;DHT22;58605;48.700;8.760;2023-11-21T09:54:49;9.70;91.60
70947;DHT22;58605;48.700;8.760;2023-11-21T09:57:16;9.70;91.40
70947;DHT22;58605;48.700;8.760;2023-11-21T09:59:45;9.60;91.30
70947;DHT22;58605;48.700;8.760;2023-11-21T10:02:14;9.70;91.30
70947;DHT22;58605;48.700;8.760;2023-11-21T10:04:44;9.80;91.20
70947;DHT22;58605;48.700;8.760;2023-11-21T10:07:11;10.00;90.60
70947;DHT22;58605;48.700;8.760;2023-11-21T10:09:38;10.10;90.40
70947;DHT22;58605;48.700;8.760;2023-11-21T10:12:06;10.10;90.40
70947;DHT22;58605;48.700;8.760;2023-11-21T10:14:34;10.30;90.00
70947;DHT22;58605;48.700;8.760;2023-11-21T10:17:03;10.40;89.80
70947;DHT22;58605;48.700;8.760;2023-11-21T10:19:30;10.40;90.00
70947;DHT22;58605;48.700;8.760;2023-11-21T10:21:59;10.40;90.10
70947;DHT22;58605;48.700;8.760;2023-11-21T10:24:26;10.50;90.20
70947;DHT22;58605;48.700;8.760;2023-11-21T10:26:52;10.50;90.10
70947;DHT22;58605;48.700;8.760;2023-11-21T10:29:19;10.40;89.80
70947;DHT22;58605;48.700;8.760;2023-11-21T10:31:49;10.40;89.70
70947;DHT22;58605;48.700;8.760;2023-11-21T10:34:16;10.20;89.30
70947;DHT22;58605;48.700;8.760;2023-11-21T10:36:45;10.10;89.60
70947;DHT22;58605;48.700;8.760;2023-11-21T10:39:16;10.20;89.90
70947;DHT22;58605;48.700;8.760;2023-11-21T10:41:44;10.10;89.80
70947;DHT22;58605;48.700;8.760;2023-11-21T10:44:11;10.10;89.80
70947;DHT22;58605;48.700;8.760;2023-11-21T10:46:40;10.30;89.40
70947;DHT22;58605;48.700;8.760;2023-11-21T10:49:08;10.60;88.70
70947;DHT22;58605;48.700;8.760;2023-11-21T10:51:45;10.70;87.80
70947;DHT22;58605;48.700;8.760;2023-11-21T10:54:11;10.60;87.90
70947;DHT22;58605;48.700;8.760;2023-11-21T10:56:38;10.50;88.00
70947;DHT22;58605;48.700;8.760;2023-11-21T10:59:08;10.40;88.40
70947;DHT22;58605;48.700;8.760;2023-11-21T11:01:37;10.30;88.70
70947;DHT22;58605;48.700;8.760;2023-11-21T11:04:05;10.50;88.90
70947;DHT22;58605;48.700;8.760;2023-11-21T11:06:32;10.50;88.70
70947;DHT22;58605;48.700;8.760;2023-11-21T11:09:01;10.50;88.70
70947;DHT22;58605;48.700;8.760;2023-11-21T11:11:30;10.50;88.10
70947;DHT22;58605;48.700;8.760;2023-11-21T11:13:57;10.50;88.10
70947;DHT22;58605;48.700;8.760;2023-11-21T11:16:26;10.30;87.60
70947;DHT22;58605;48.700;8.760;2023-11-21T11:19:00;10.30;89.00
70947;DHT22;58605;48.700;8.760;2023-11-21T11:21:33;10.10;90.00
70947;DHT22;58605;48.700;8.760;2023-11-21T11:24:27;9.90;90.90
70947;DHT22;58605;48.700;8.760;2023-11-21T11:27:03;9.70;91.50
70947;DHT22;58605;48.700;8.760;2023-11-21T11:29:41;9.70;91.70
70947;DHT22;58605;48.700;8.760;2023-11-21T11:32:16;9.50;91.70
70947;DHT22;58605;48.700;8.760;2023-11-21T11:34:47;9.30;92.20
70947;DHT22;58605;48.700;8.760;2023-11-21T11:37:15;9.30;92.30
70947;DHT22;58605;48.700;8.760;2023-11-21T11:39:43;9.30;92.50
70947;DHT22;58605;48.700;8.760;2023-11-21T11:42:13;9.30;92.20
70947;DHT22;58605;48.700;8.760;2023-11-21T11:44:48;9.20;92.50
70947;DHT22;58605;48.700;8.760;2023-11-21T11:47:20;9.20;92.70
70947;DHT22;58605;48.700;8.760;2023-11-21T11:50:06;9.20;92.60
70947;DHT22;58605;48.700;8.760;2023-11-21T11:52:35;9.10;92.40
70947;DHT22;58605;48.700;8.760;2023-11-21T11:55:04;9.00;92.80
70947;DHT22;58605;48.700;8.760;2023-11-21T11:57:31;9.00;92.90
70947;DHT22;58605;48.700;8.760;2023-11-21T12:00:15;9.10;92.90
70947;DHT22;58605;48.700;8.760;2023-11-21T12:02:47;9.20;92.70
70947;DHT22;58605;48.700;8.760;2023-11-21T12:05:14;9.20;92.40
70947;DHT22;58605;48.700;8.760;2023-11-21T12:07:45;9.10;92.30
70947;DHT22;58605;48.700;8.760;2023-11-21T12:10:17;9.10;92.40
70947;DHT22;58605;48.700;8.760;2023-11-21T12:12:47;9.10;92.60
70947;DHT22;58605;48.700;8.760;2023-11-21T12:15:14;9.20;92.50
70947;DHT22;58605;48.700;8.760;2023-11-21T12:17:43;9.20;92.50
70947;DHT22;58605;48.700;8.760;2023-11-21T12:20:10;9.10;92.40
70947;DHT22;58605;48.700;8.760;2023-11-21T12:22:46;9.20;92.60
70947;DHT22;58605;48.700;8.760;2023-11-21T12:25:18;9.40;92.90
70947;DHT22;58605;48.700;8.760;2023-11-21T12:27:48;9.50;92.60
70947;DHT22;58605;48.700;8.760;2023-11-21T12:30:16;9.30;92.40
70947;DHT22;58605;48.700;8.760;2023-11-21T12:32:43;9.30;92.60
70947;DHT22;58605;48.700;8.760;2023-11-21T12:35:12;9.30;92.90
70947;DHT22;58605;48.700;8.760;2023-11-21T12:37:38;9.10;93.00
70947;DHT22;58605;48.700;8.760;2023-11-21T12:40:06;9.00;92.90
70947;DHT22;58605;48.700;8.760;2023-11-21T12:42:39;9.00;93.40
70947;DHT22;58605;48.700;8.760;2023-11-21T12:45:08;9.10;93.40
70947;DHT22;58605;48.700;8.760;2023-11-21T12:47:41;9.10;93.00
70947;DHT22;58605;48.700;8.760;2023-11-21T12:50:08;9.00;93.10
70947;DHT22;58605;48.700;8.760;2023-11-21T12:52:43;9.10;92.60
70947;DHT22;58605;48.700;8.760;2023-11-21T12:55:17;9.20;92.60
70947;DHT22;58605;48.700;8.760;2023-11-21T12:57:47;9.20;92.10
70947;DHT22;58605;48.700;8.760;2023-11-21T13:00:16;9.10;92.60
70947;DHT22;58605;48.700;8.760;2023-11-21T13:02:52;9.10;92.80
70947;DHT22;58605;48.700;8.760;2023-11-21T13:05:26;9.00;93.00
70947;DHT22;58605;48.700;8.760;2023-11-21T13:07:53;8.90;93.40
70947;DHT22;58605;48.700;8.760;2023-11-21T13:10:22;8.80;93.40
70947;DHT22;58605;48.700;8.760;2023-11-21T13:12:53;8.80;93.60
70947;DHT22;58605;48.700;8.760;2023-11-21T13:15:20;8.90;93.70
70947;DHT22;58605;48.700;8.760;2023-11-21T13:17:46;8.80;93.60
70947;DHT22;58605;48.700;8.760;2023-11-21T13:20:13;8.80;93.60
70947;DHT22;58605;48.700;8.760;2023-11-21T13:22:47;8.90;93.80
70947;DHT22;58605;48.700;8.760;2023-11-21T13:25:15;8.90;93.70
70947;DHT22;58605;48.700;8.760;2023-11-21T13:27:43;9.00;93.60
70947;DHT22;58605;48.700;8.760;2023-11-21T13:30:13;9.10;93.60
70947;DHT22;58605;48.700;8.760;2023-11-21T13:32:43;9.10;93.50
70947;DHT22;58605;48.700;8.760;2023-11-21T13:35:11;9.10;93.50
70947;DHT22;58605;48.700;8.760;2023-11-21T13:37:48;9.10;93.60
70947;DHT22;58605;48.700;8.760;2023-11-21T13:40:16;9.20;93.20
70947;DHT22;58605;48.700;8.760;2023-11-21T13:42:49;9.20;93.80
70947;DHT22;58605;48.700;8.760;2023-11-21T13:45:21;9.10;93.60
70947;DHT22;58605;48.700;8.760;2023-11-21T13:47:49;8.90;93.90
70947;DHT22;58605;48.700;8.760;2023-11-21T13:50:17;8.80;94.10
70947;DHT22;58605;48.700;8.760;2023-11-21T13:52:49;8.60;94.20
70947;DHT22;58605;48.700;8.760;2023-11-21T13:55:16;8.40;93.50
70947;DHT22;58605;48.700;8.760;2023-11-21T13:57:43;8.30;93.40
70947;DHT22;58605;48.700;8.760;2023-11-21T14:00:13;8.30;93.70
70947;DHT22;58605;48.700;8.760;2023-11-21T14:03:01;8.40;93.90
70947;DHT22;58605;48.700;8.760;2023-11-21T14:05:31;8.50;93.80
70947;DHT22;58605;48.700;8.760;2023-11-21T14:08:00;8.50;93.60
70947;DHT22;58605;48.700;8.760;2023-11-21T14:10:31;8.50;93.70
70947;DHT22;58605;48.700;8.760;2023-11-21T14:13:09;8.60;93.80
70947;DHT22;58605;48.700;8.760;2023-11-21T14:15:39;8.50;93.90
70947;DHT22;58605;48.700;8.760;2023-11-21T14:18:12;8.60;93.90
70947;DHT22;58605;48.700;8.760;2023-11-21T14:20:42;8.80;93.90
70947;DHT22;58605;48.700;8.760;2023-11-21T14:23:10;8.90;93.70
70947;DHT22;58605;48.700;8.760;2023-11-21T14:25:37;8.80;93.30
70947;DHT22;58605;48.700;8.760;2023-11-21T14:28:03;8.80;93.50
70947;DHT22;58605;48.700;8.760;2023-11-21T14:30:31;8.90;93.50
70947;DHT22;58605;48.700;8.760;2023-11-21T14:32:59;9.00;93.40
70947;DHT22;58605;48.700;8.760;2023-11-21T14:35:26;9.10;93.30
70947;DHT22;58605;48.700;8.760;2023-11-21T14:37:52;9.20;93.20
70947;DHT22;58605;48.700;8.760;2023-11-21T14:40:18;9.20;93.10
70947;DHT22;58605;48.700;8.760;2023-11-21T14:42:50;9.20;93.00
70947;DHT22;58605;48.700;8.760;2023-11-21T14:45:18;9.30;92.90
70947;DHT22;58605;48.700;8.760;2023-11-21T14:47:46;9.30;92.80
70947;DHT22;58605;48.700;8.760;2023-11-21T14:50:20;9.30;92.70
70947;DHT22;58605;48.700;8.760;2023-11-21T14:53:08;9.20;92.80
70947;DHT22;58605;48.700;8.760;2023-11-21T14:55:35;9.20;93.00
70947;DHT22;58605;48.700;8.760;2023-11-21T14:58:07;9.20;92.80
70947;DHT22;58605;48.700;8.760;2023-11-21T15:00:38;9.20;92.90
70947;DHT22;58605;48.700;8.760;2023-11-21T15:03:11;9.10;93.20
70947;DHT22;58605;48.700;8.760;2023-11-21T15:05:52;9.00;93.60
70947;DHT22;58605;48.700;8.760;2023-11-21T15:08:21;8.70;93.60
70947;DHT22;58605;48.700;8.760;2023-11-21T15:10:52;8.50;93.90
70947;DHT22;58605;48.700;8.760;2023-11-21T15:13:21;8.40;93.80
70947;DHT22;58605;48.700;8.760;2023-11-21T15:15:49;8.20;93.80
70947;DHT22;58605;48.700;8.760;2023-11-21T15:18:15;8.20;93.90
70947;DHT22;58605;48.700;8.760;2023-11-21T15:20:41;8.20;93.90
70947;DHT22;58605;48.700;8.760;2023-11-21T15:23:09;8.20;93.90
70947;DHT22;58605;48.700;8.760;2023-11-21T15:25:36;8.10;94.00
70947;DHT22;58605;48.700;8.760;2023-11-21T15:28:03;8.20;94.10
70947;DHT22;58605;48.700;8.760;2023-11-21T15:30:30;8.30;93.90
70947;DHT22;58605;48.700;8.760;2023-11-21T15:32:57;8.30;93.80
70947;DHT22;58605;48.700;8.760;2023-11-21T15:35:24;8.40;93.70
70947;DHT22;58605;48.700;8.760;2023-11-21T15:37:50;8.50;93.60
70947;DHT22;58605;48.700;8.760;2023-11-21T15:40:16;8.60;93.40
70947;DHT22;58605;48.700;8.760;2023-11-21T15:42:44;8.60;93.40
70947;DHT22;58605;48.700;8.760;2023-11-21T15:45:10;8.70;93.30
70947;DHT22;58605;48.700;8.760;2023-11-21T15:47:37;8.70;93.10
70947;DHT22;58605;48.700;8.760;2023-11-21T15:50:04;8.70;93.00
70947;DHT22;58605;48.700;8.760;2023-11-21T15:52:34;8.70;92.90
70947;DHT22;58605;48.700;8.760;2023-11-21T15:55:00;8.70;92.90